Time,TemperatureF,DewpointF,PressureIn,WindDirection,WindDirectionDegrees,WindSpeedMPH,WindSpeedGustMPH,Humidity,HourlyPrecipIn,Conditions,Clouds,dailyrainin,SoftwareType,DateUTC
2013-04-20 00:01:00,66.6,66.6,29.54,South,186,4.7,9.6,100,0.00,,,0.00,WSDL version 423,2013-04-20 04:01:00,
2013-04-20 00:10:00,66.6,66.6,29.55,WSW,241,4.7,9.6,100,0.00,,,0.00,WSDL version 423,2013-04-20 04:10:00,
2013-04-20 00:20:00,66.6,66.6,29.54,SW,214,3.1,8.7,100,0.00,,,0.00,WSDL version 423,2013-04-20 04:20:00,
2013-04-20 00:30:00,66.4,66.4,29.54,South,174,3.2,7.2,100,0.00,,,0.00,WSDL version 423,2013-04-20 04:30:00,
2013-04-20 00:40:00,66.2,66.2,29.54,South,180,4.2,8.3,100,0.00,,,0.00,WSDL version 423,2013-04-20 04:40:00,
2013-04-20 00:50:00,64.4,64.4,29.55,SSW,199,2.8,7.2,100,0.04,,,0.04,WSDL version 423,2013-04-20 04:50:00,
2013-04-20 01:00:00,63.7,63.7,29.54,SSW,193,2.7,5.8,100,0.04,,,0.04,WSDL version 423,2013-04-20 05:00:00,
2013-04-20 01:10:00,63.5,63.5,29.54,SSW,197,0.3,4.9,100,0.04,,,0.04,WSDL version 423,2013-04-20 05:10:00,
2013-04-20 01:20:00,63.3,63.3,29.54,SW,233,1.5,4.9,100,0.08,,,0.08,WSDL version 423,2013-04-20 05:20:00,
2013-04-20 01:30:00,63.1,63.1,29.53,SW,236,0.0,4.9,100,0.08,,,0.08,WSDL version 423,2013-04-20 05:30:00,
2013-04-20 01:40:00,63.0,63.0,29.53,South,177,2.7,4.9,100,0.08,,,0.08,WSDL version 423,2013-04-20 05:40:00,
2013-04-20 01:50:00,62.8,62.8,29.53,South,188,1.3,4.0,100,0.04,,,0.08,WSDL version 423,2013-04-20 05:50:00,
2013-04-20 02:00:00,62.6,62.6,29.52,South,191,1.1,5.8,100,0.08,,,0.13,WSDL version 423,2013-04-20 06:00:00,
2013-04-20 02:10:00,62.5,62.5,29.52,SW,228,2.5,4.9,100,0.08,,,0.13,WSDL version 423,2013-04-20 06:10:00,
2013-04-20 02:20:00,62.3,62.3,29.52,SSE,149,0.0,4.0,100,0.04,,,0.13,WSDL version 423,2013-04-20 06:20:00,
2013-04-20 02:30:00,62.2,62.2,29.51,South,173,1.4,4.0,100,0.04,,,0.13,WSDL version 423,2013-04-20 06:30:00,
2013-04-20 02:40:00,62.1,62.1,29.51,SSW,200,3.6,4.9,100,0.04,,,0.13,WSDL version 423,2013-04-20 06:40:00,
2013-04-20 02:50:00,61.9,61.9,29.50,South,174,1.5,4.5,100,0.04,,,0.13,WSDL version 423,2013-04-20 06:50:00,
2013-04-20 03:00:00,61.7,61.7,29.50,SSW,209,0.0,7.6,100,0.00,,,0.13,WSDL version 423,2013-04-20 07:00:00,
2013-04-20 03:10:00,61.5,61.5,29.50,South,183,1.5,4.0,100,0.00,,,0.13,WSDL version 423,2013-04-20 07:10:00,
2013-04-20 03:20:00,61.3,61.3,29.49,SW,222,0.0,4.0,100,0.00,,,0.13,WSDL version 423,2013-04-20 07:20:00,
2013-04-20 03:30:00,61.2,61.2,29.50,West,264,0.0,4.0,100,0.00,,,0.13,WSDL version 423,2013-04-20 07:30:00,
2013-04-20 03:40:00,61.2,61.2,29.50,NNW,347,0.0,6.3,100,0.00,,,0.13,WSDL version 423,2013-04-20 07:40:00,
2013-04-20 03:50:00,57.6,57.6,29.52,North,357,0.0,5.4,100,0.00,,,0.13,WSDL version 423,2013-04-20 07:50:00,
2013-04-20 04:00:00,56.1,56.1,29.52,WNW,301,0.0,3.6,100,0.00,,,0.13,WSDL version 423,2013-04-20 08:00:00,
2013-04-20 04:10:00,55.4,55.4,29.53,NNW,347,0.0,7.6,100,0.04,,,0.17,WSDL version 423,2013-04-20 08:10:00,
2013-04-20 04:20:00,54.7,54.7,29.55,NW,305,2.6,4.9,100,0.04,,,0.17,WSDL version 423,2013-04-20 08:20:00,
2013-04-20 04:30:00,53.9,53.9,29.54,ENE,76,0.0,4.9,100,0.04,,,0.17,WSDL version 423,2013-04-20 08:30:00,
2013-04-20 04:40:00,53.3,53.3,29.53,West,270,0.0,4.9,100,0.08,,,0.21,WSDL version 423,2013-04-20 08:40:00,
2013-04-20 04:50:00,52.9,52.9,29.54,West,270,0.0,2.2,100,0.08,,,0.21,WSDL version 423,2013-04-20 08:50:00,
2013-04-20 05:00:00,52.6,52.6,29.55,WSW,239,0.0,2.2,100,0.08,,,0.21,WSDL version 423,2013-04-20 09:00:00,
2013-04-20 05:10:00,52.0,52.0,29.57,SW,233,0.0,3.6,100,0.08,,,0.25,WSDL version 423,2013-04-20 09:10:00,
2013-04-20 05:20:00,51.3,51.3,29.58,WSW,257,1.5,8.1,100,0.08,,,0.25,WSDL version 423,2013-04-20 09:20:00,
2013-04-20 05:30:00,50.2,50.2,29.58,West,280,0.0,5.4,100,0.13,,,0.29,WSDL version 423,2013-04-20 09:30:00,
2013-04-20 05:40:00,49.7,49.7,29.57,ENE,58,0.0,3.6,100,0.08,,,0.29,WSDL version 423,2013-04-20 09:40:00,
2013-04-20 05:50:00,49.7,49.7,29.57,NE,45,0.0,0.0,100,0.12,,,0.33,WSDL version 423,2013-04-20 09:50:00,
2013-04-20 06:00:00,49.7,49.7,29.59,West,270,0.0,0.0,100,0.12,,,0.33,WSDL version 423,2013-04-20 10:00:00,
2013-04-20 06:10:00,49.2,49.2,29.62,West,270,1.3,4.0,100,0.08,,,0.33,WSDL version 423,2013-04-20 10:10:00,
2013-04-20 06:20:00,48.7,48.7,29.60,NW,315,0.0,2.7,100,0.08,,,0.33,WSDL version 423,2013-04-20 10:20:00,
2013-04-20 06:30:00,48.4,48.4,29.62,NW,309,0.0,4.0,100,0.08,,,0.37,WSDL version 423,2013-04-20 10:30:00,
2013-04-20 06:40:00,48.1,48.1,29.61,WNW,302,0.0,3.1,100,0.08,,,0.37,WSDL version 423,2013-04-20 10:40:00,
2013-04-20 06:50:00,48.1,48.1,29.62,NW,315,0.0,3.6,100,0.04,,,0.37,WSDL version 423,2013-04-20 10:50:00,
2013-04-20 07:00:00,47.8,47.8,29.63,WSW,239,0.0,3.1,100,0.04,,,0.37,WSDL version 423,2013-04-20 11:00:00,
2013-04-20 07:10:00,47.6,47.6,29.65,NW,304,0.0,3.6,100,0.08,,,0.41,WSDL version 423,2013-04-20 11:10:00,
2013-04-20 07:20:00,46.9,46.9,29.66,SW,233,0.0,5.4,100,0.08,,,0.41,WSDL version 423,2013-04-20 11:20:00,
2013-04-20 07:30:00,46.2,46.2,29.67,SSW,197,0.0,4.5,100,0.04,,,0.41,WSDL version 423,2013-04-20 11:30:00,
2013-04-20 07:40:00,45.6,45.6,29.67,NNW,334,0.0,4.9,100,0.04,,,0.41,WSDL version 423,2013-04-20 11:40:00,
2013-04-20 07:50:00,45.1,45.1,29.67,SW,231,0.0,4.0,100,0.04,,,0.41,WSDL version 423,2013-04-20 11:50:00,
2013-04-20 08:00:00,44.6,44.6,29.68,West,264,2.3,6.3,100,0.04,,,0.41,WSDL version 423,2013-04-20 12:00:00,
2013-04-20 08:10:00,44.6,44.6,29.69,East,100,0.0,2.2,100,0.00,,,0.41,WSDL version 423,2013-04-20 12:10:00,
2013-04-20 08:20:00,44.5,44.5,29.70,WNW,297,0.0,2.2,100,0.00,,,0.41,WSDL version 423,2013-04-20 12:20:00,
2013-04-20 08:30:00,44.8,44.8,29.70,SSE,154,0.0,3.6,100,0.00,,,0.41,WSDL version 423,2013-04-20 12:30:00,
2013-04-20 08:40:00,45.3,45.3,29.70,SSW,203,0.0,2.7,100,0.00,,,0.41,WSDL version 423,2013-04-20 12:40:00,
2013-04-20 08:50:00,46.2,46.2,29.69,WNW,283,0.0,4.0,100,0.00,,,0.41,WSDL version 423,2013-04-20 12:50:00,
2013-04-20 09:00:00,47.1,47.1,29.70,West,278,0.0,2.2,100,0.00,,,0.41,WSDL version 423,2013-04-20 13:00:00,
2013-04-20 09:10:00,47.5,47.5,29.70,NNW,330,0.0,0.0,100,0.00,,,0.41,WSDL version 423,2013-04-20 13:10:00,
2013-04-20 09:20:00,47.7,47.7,29.70,WSW,253,0.0,4.0,100,0.00,,,0.41,WSDL version 423,2013-04-20 13:20:00,
2013-04-20 09:30:00,47.8,47.8,29.69,WSW,248,0.0,0.0,100,0.00,,,0.41,WSDL version 423,2013-04-20 13:30:00,
2013-04-20 09:40:00,47.8,47.8,29.70,NW,307,0.0,4.5,100,0.00,,,0.41,WSDL version 423,2013-04-20 13:40:00,
2013-04-20 09:50:00,48.0,48.0,29.70,SW,225,0.0,4.5,100,0.00,,,0.41,WSDL version 423,2013-04-20 13:50:00,
2013-04-20 10:00:00,48.5,48.5,29.71,South,171,0.0,4.0,100,0.00,,,0.41,WSDL version 423,2013-04-20 14:00:00,
2013-04-20 10:10:00,49.4,49.4,29.72,East,86,1.1,7.2,100,0.00,,,0.41,WSDL version 423,2013-04-20 14:10:00,
2013-04-20 10:20:00,51.4,51.4,29.73,SSW,210,0.0,5.4,100,0.00,,,0.41,WSDL version 423,2013-04-20 14:20:00,
2013-04-20 10:30:00,50.8,50.8,29.73,NW,310,0.2,5.4,100,0.00,,,0.41,WSDL version 423,2013-04-20 14:30:00,
2013-04-20 10:40:00,51.9,51.9,29.74,SW,228,3.4,6.3,100,0.00,,,0.41,WSDL version 423,2013-04-20 14:40:00,
2013-04-20 10:50:00,54.1,54.1,29.73,WNW,293,1.3,8.1,100,0.00,,,0.41,WSDL version 423,2013-04-20 14:50:00,
2013-04-20 11:00:00,54.1,54.1,29.74,NE,49,1.3,4.5,100,0.00,,,0.41,WSDL version 423,2013-04-20 15:00:00,
2013-04-20 11:10:00,53.7,53.7,29.74,ENE,61,1.3,4.9,100,0.00,,,0.41,WSDL version 423,2013-04-20 15:10:00,
2013-04-20 11:20:00,55.6,55.6,29.75,NW,318,1.3,8.7,100,0.00,,,0.41,WSDL version 423,2013-04-20 15:20:00,
2013-04-20 11:30:00,56.5,56.5,29.75,South,190,5.5,8.3,100,0.00,,,0.41,WSDL version 423,2013-04-20 15:30:00,
2013-04-20 11:40:00,57.1,57.1,29.75,WNW,301,1.3,4.0,100,0.00,,,0.41,WSDL version 423,2013-04-20 15:40:00,
2013-04-20 11:50:00,56.8,56.8,29.75,SE,129,0.0,5.4,100,0.00,,,0.41,WSDL version 423,2013-04-20 15:50:00,
2013-04-20 12:00:00,57.3,57.3,29.76,SSE,149,2.2,4.9,100,0.00,,,0.41,WSDL version 423,2013-04-20 16:00:00,
2013-04-20 12:10:00,57.8,57.8,29.76,NNW,328,0.0,5.8,100,0.00,,,0.41,WSDL version 423,2013-04-20 16:10:00,
2013-04-20 12:20:00,58.1,58.1,29.76,ESE,110,0.0,4.9,100,0.00,,,0.41,WSDL version 423,2013-04-20 16:20:00,
2013-04-20 12:30:00,59.7,59.7,29.76,SW,225,0.0,4.0,100,0.00,,,0.41,WSDL version 423,2013-04-20 16:30:00,
2013-04-20 12:40:00,59.3,59.3,29.76,NNW,338,2.2,5.4,100,0.00,,,0.41,WSDL version 423,2013-04-20 16:40:00,
2013-04-20 12:50:00,58.8,58.8,29.76,NNE,17,2.2,5.8,100,0.00,,,0.41,WSDL version 423,2013-04-20 16:50:00,
2013-04-20 13:00:00,59.8,59.8,29.75,SW,219,0.0,10.5,100,0.00,,,0.41,WSDL version 423,2013-04-20 17:00:00,
2013-04-20 13:10:00,59.2,59.2,29.75,NNW,330,0.7,8.1,100,0.00,,,0.41,WSDL version 423,2013-04-20 17:10:00,
2013-04-20 13:20:00,58.6,58.6,29.76,WNW,298,3.2,6.7,100,0.00,,,0.41,WSDL version 423,2013-04-20 17:20:00,
2013-04-20 13:30:00,59.3,59.3,29.76,North,354,1.2,6.3,100,0.00,,,0.41,WSDL version 423,2013-04-20 17:30:00,
2013-04-20 13:40:00,59.4,59.4,29.76,WSW,241,1.8,7.6,100,0.00,,,0.41,WSDL version 423,2013-04-20 17:40:00,
2013-04-20 13:50:00,59.7,59.7,29.77,NNE,13,1.8,6.7,100,0.00,,,0.41,WSDL version 423,2013-04-20 17:50:00,
2013-04-20 14:00:00,59.7,59.7,29.77,NNE,30,2.3,6.3,100,0.00,,,0.41,WSDL version 423,2013-04-20 18:00:00,
2013-04-20 14:10:00,59.9,59.9,29.77,NNE,28,1.2,5.8,100,0.00,,,0.41,WSDL version 423,2013-04-20 18:10:00,
2013-04-20 14:20:00,59.4,59.4,29.77,WSW,239,3.2,7.2,100,0.00,,,0.41,WSDL version 423,2013-04-20 18:20:00,
2013-04-20 14:30:00,59.2,59.2,29.78,NNW,343,1.3,6.3,100,0.00,,,0.41,WSDL version 423,2013-04-20 18:30:00,
2013-04-20 14:40:00,58.7,58.7,29.79,NNW,344,3.6,7.2,100,0.00,,,0.41,WSDL version 423,2013-04-20 18:40:00,
2013-04-20 14:50:00,58.0,58.0,29.79,West,267,2.3,7.6,100,0.00,,,0.41,WSDL version 423,2013-04-20 18:50:00,
2013-04-20 15:00:00,58.3,58.3,29.78,NNW,345,1.8,10.5,100,0.00,,,0.41,WSDL version 423,2013-04-20 19:00:00,
2013-04-20 15:10:00,57.5,57.5,29.78,NW,305,1.2,7.2,100,0.00,,,0.41,WSDL version 423,2013-04-20 19:10:00,
2013-04-20 15:20:00,59.2,59.2,29.79,NE,48,2.9,4.9,100,0.00,,,0.41,WSDL version 423,2013-04-20 19:20:00,
2013-04-20 15:30:00,59.9,59.9,29.79,NNW,332,2.7,7.2,100,0.00,,,0.41,WSDL version 423,2013-04-20 19:30:00,
2013-04-20 15:40:00,58.6,58.6,29.80,North,354,1.7,7.6,100,0.00,,,0.41,WSDL version 423,2013-04-20 19:40:00,
2013-04-20 15:50:00,58.4,58.4,29.80,NNE,25,1.8,6.3,100,0.00,,,0.41,WSDL version 423,2013-04-20 19:50:00,
2013-04-20 16:00:00,58.7,58.7,29.81,NW,321,1.0,3.1,100,0.00,,,0.41,WSDL version 423,2013-04-20 20:00:00,
2013-04-20 16:10:00,59.4,59.4,29.81,WNW,293,1.1,4.9,100,0.00,,,0.41,WSDL version 423,2013-04-20 20:10:00,
2013-04-20 16:20:00,58.4,58.4,29.82,SW,225,0.0,4.0,100,0.00,,,0.41,WSDL version 423,2013-04-20 20:20:00,
2013-04-20 16:30:00,58.5,58.5,29.82,WNW,290,0.0,4.9,100,0.00,,,0.41,WSDL version 423,2013-04-20 20:30:00,
2013-04-20 16:40:00,58.6,58.6,29.83,SW,222,0.0,4.0,100,0.00,,,0.41,WSDL version 423,2013-04-20 20:40:00,
2013-04-20 16:50:00,58.5,58.5,29.83,SSW,193,1.2,4.9,100,0.00,,,0.41,WSDL version 423,2013-04-20 20:50:00,
2013-04-20 17:00:00,58.9,58.9,29.84,SW,225,0.0,4.0,100,0.00,,,0.41,WSDL version 423,2013-04-20 21:00:00,
2013-04-20 17:10:00,58.5,58.5,29.84,WSW,256,0.0,4.0,100,0.00,,,0.41,WSDL version 423,2013-04-20 21:10:00,
2013-04-20 17:20:00,58.3,58.3,29.85,WNW,288,0.0,4.0,100,0.00,,,0.41,WSDL version 423,2013-04-20 21:20:00,
2013-04-20 17:30:00,59.8,59.8,29.85,NNW,328,2.8,6.3,100,0.00,,,0.41,WSDL version 423,2013-04-20 21:30:00,
2013-04-20 17:40:00,58.4,58.4,29.85,South,180,0.0,3.6,100,0.00,,,0.41,WSDL version 423,2013-04-20 21:40:00,
2013-04-20 17:50:00,57.6,57.6,29.86,North,360,0.0,5.4,100,0.00,,,0.41,WSDL version 423,2013-04-20 21:50:00,
2013-04-20 18:00:00,56.8,56.8,29.86,North,357,2.8,6.3,100,0.00,,,0.41,WSDL version 423,2013-04-20 22:00:00,
2013-04-20 18:10:00,57.0,57.0,29.87,ESE,115,1.2,4.9,100,0.00,,,0.41,WSDL version 423,2013-04-20 22:10:00,
2013-04-20 18:20:00,57.0,57.0,29.87,NW,324,0.4,4.0,100,0.00,,,0.41,WSDL version 423,2013-04-20 22:20:00,
2013-04-20 18:30:00,56.1,56.1,29.88,ESE,113,0.6,4.9,100,0.00,,,0.41,WSDL version 423,2013-04-20 22:30:00,
2013-04-20 18:40:00,55.4,55.4,29.89,South,173,0.0,4.0,100,0.00,,,0.41,WSDL version 423,2013-04-20 22:40:00,
2013-04-20 18:50:00,54.7,54.7,29.90,SSE,160,0.0,4.9,100,0.00,,,0.41,WSDL version 423,2013-04-20 22:50:00,
2013-04-20 19:00:00,54.1,54.1,29.90,SW,222,0.0,5.8,100,0.00,,,0.41,WSDL version 423,2013-04-20 23:00:00,
2013-04-20 19:10:00,53.4,53.4,29.91,East,87,2.2,6.3,100,0.00,,,0.41,WSDL version 423,2013-04-20 23:10:00,
2013-04-20 19:20:00,52.5,52.5,29.92,WNW,301,0.0,7.2,100,0.00,,,0.41,WSDL version 423,2013-04-20 23:20:00,
2013-04-20 19:30:00,51.7,51.7,29.93,NW,319,0.0,4.0,100,0.00,,,0.41,WSDL version 423,2013-04-20 23:30:00,
2013-04-20 19:40:00,51.2,51.2,29.94,West,260,2.2,4.9,100,0.00,,,0.41,WSDL version 423,2013-04-20 23:40:00,
2013-04-20 19:50:00,50.4,50.4,29.94,NW,321,0.0,3.6,100,0.00,,,0.41,WSDL version 423,2013-04-20 23:50:00,
2013-04-20 20:00:00,49.9,49.9,29.95,NW,318,1.5,4.0,100,0.00,,,0.41,WSDL version 423,2013-04-21 00:00:00,
2013-04-20 20:10:00,49.2,49.2,29.96,NNE,29,0.0,3.1,100,0.00,,,0.41,WSDL version 423,2013-04-21 00:10:00,
2013-04-20 20:20:00,49.0,49.0,29.97,SSW,203,0.0,3.6,100,0.00,,,0.41,WSDL version 423,2013-04-21 00:20:00,
2013-04-20 20:30:00,48.7,48.7,29.98,NNE,23,0.0,2.7,100,0.00,,,0.41,WSDL version 423,2013-04-21 00:30:00,
2013-04-20 20:40:00,48.5,48.5,29.99,WNW,283,1.5,6.3,100,0.00,,,0.41,WSDL version 423,2013-04-21 00:40:00,
2013-04-20 20:50:00,47.9,47.9,30.00,NNW,342,1.3,5.4,100,0.00,,,0.41,WSDL version 423,2013-04-21 00:50:00,
2013-04-20 21:00:00,47.5,47.5,30.01,West,270,0.0,4.5,100,0.00,,,0.41,WSDL version 423,2013-04-21 01:00:00,
2013-04-20 21:10:00,47.3,47.3,30.01,NNW,333,0.0,5.4,100,0.00,,,0.41,WSDL version 423,2013-04-21 01:10:00,
2013-04-20 21:20:00,47.1,47.1,30.02,West,270,0.0,4.0,100,0.00,,,0.41,WSDL version 423,2013-04-21 01:20:00,
2013-04-20 21:30:00,46.8,46.8,30.03,North,357,0.0,3.1,100,0.00,,,0.41,WSDL version 423,2013-04-21 01:30:00,
2013-04-20 21:40:00,46.5,46.5,30.04,NW,315,0.0,2.7,100,0.00,,,0.41,WSDL version 423,2013-04-21 01:40:00,
2013-04-20 21:50:00,46.3,46.3,30.04,West,270,0.0,3.1,100,0.00,,,0.41,WSDL version 423,2013-04-21 01:50:00,
2013-04-20 22:00:00,46.2,46.2,30.05,NE,38,1.1,4.0,100,0.00,,,0.41,WSDL version 423,2013-04-21 02:00:00,
2013-04-20 22:10:00,45.7,45.7,30.05,East,90,0.0,4.0,100,0.00,,,0.41,WSDL version 423,2013-04-21 02:10:00,
2013-04-20 22:20:00,45.4,45.4,30.05,NNW,328,0.0,5.4,100,0.00,,,0.41,WSDL version 423,2013-04-21 02:20:00,
2013-04-20 22:30:00,45.2,45.2,30.06,NNW,328,0.0,4.9,100,0.00,,,0.41,WSDL version 423,2013-04-21 02:30:00,
2013-04-20 22:40:00,45.1,45.1,30.07,SW,233,0.0,5.4,100,0.00,,,0.41,WSDL version 423,2013-04-21 02:40:00,
2013-04-20 22:50:00,44.8,44.8,30.08,East,93,1.5,7.2,100,0.00,,,0.41,WSDL version 423,2013-04-21 02:50:00,
2013-04-20 23:00:00,44.3,44.3,30.07,South,189,0.4,4.9,100,0.00,,,0.41,WSDL version 423,2013-04-21 03:00:00,
2013-04-20 23:10:00,43.9,43.9,30.08,SSW,210,3.1,7.6,100,0.00,,,0.41,WSDL version 423,2013-04-21 03:10:00,
2013-04-20 23:20:00,43.5,43.5,30.09,WNW,296,2.5,5.8,100,0.00,,,0.41,WSDL version 423,2013-04-21 03:20:00,
2013-04-20 23:30:00,43.2,43.2,30.09,WNW,289,3.2,7.2,100,0.00,,,0.41,WSDL version 423,2013-04-21 03:30:00,
2013-04-20 23:40:00,42.8,42.8,30.10,North,360,1.1,6.3,100,0.00,,,0.41,WSDL version 423,2013-04-21 03:40:00,
2013-04-20 23:50:00,42.7,42.7,30.10,North,6,2.5,6.3,100,0.00,,,0.41,WSDL version 423,2013-04-21 03:50:00,